Time;durP1;ratioP1;P1;durP2;ratioP2;P2;SDS_P1;SDS_P2;PMS_P1;PMS_P2;Temp;Humidity;BMP_temperature;BMP_pressure;BME280_temperature;BME280_humidity;BME280_pressure;Samples;Min_cycle;Max_cycle;Signal;HPM_P1;HPM_P2
2022/09/30 00:01:24;;;;;;;2.00;1.90;;;15.90;94.10;;;;;;5050204;28;20175;-74
2022/09/30 00:03:54;;;;;;;1.60;1.58;;;16.00;95.20;;;;;;5045333;28;20560;-72
2022/09/30 00:06:21;;;;;;;1.58;1.58;;;16.00;94.70;;;;;;5050725;28;20260;-71
2022/09/30 00:08:47;;;;;;;1.88;1.77;;;16.00;94.80;;;;;;5050566;28;20179;-71
2022/09/30 00:11:16;;;;;;;2.33;2.20;;;16.00;95.30;;;;;;5049282;28;20195;-72
2022/09/30 00:13:43;;;;;;;1.70;1.70;;;15.90;94.90;;;;;;5048759;28;20193;-72
2022/09/30 00:16:10;;;;;;;1.92;1.83;;;15.90;95.00;;;;;;5049251;28;20199;-72
2022/09/30 00:18:36;;;;;;;3.97;1.98;;;15.90;94.60;;;;;;5043737;28;20222;-72
2022/09/30 00:21:03;;;;;;;2.50;2.30;;;15.90;94.90;;;;;;5049695;28;20358;-72
2022/09/30 00:23:29;;;;;;;1.63;1.52;;;15.80;94.40;;;;;;5045954;28;20274;-72
2022/09/30 00:26:00;;;;;;;2.53;1.75;;;15.80;94.20;;;;;;5044553;28;20305;-72
2022/09/30 00:28:27;;;;;;;1.95;1.88;;;15.80;93.70;;;;;;5050407;28;20187;-72
2022/09/30 00:30:57;;;;;;;2.97;2.20;;;15.80;94.60;;;;;;5052147;28;20175;-72
2022/09/30 00:33:22;;;;;;;2.60;2.47;;;15.80;94.30;;;;;;5049138;28;20222;-72
2022/09/30 00:35:48;;;;;;;2.28;2.20;;;15.80;94.00;;;;;;5048440;28;20184;-72
2022/09/30 00:38:14;;;;;;;2.33;2.17;;;15.80;95.40;;;;;;5051306;28;20674;-72
2022/09/30 00:40:40;;;;;;;1.83;1.65;;;15.70;95.00;;;;;;5051263;28;20183;-72
2022/09/30 00:43:19;;;;;;;2.60;2.22;;;15.80;95.80;;;;;;5047785;28;20278;-72
2022/09/30 00:45:58;;;;;;;2.08;1.98;;;15.70;95.40;;;;;;5049688;28;20440;-72
2022/09/30 00:48:38;;;;;;;2.47;2.03;;;15.70;95.10;;;;;;5048548;28;20221;-73
2022/09/30 00:51:06;;;;;;;2.05;2.05;;;15.70;94.70;;;;;;5044927;28;20186;-72
2022/09/30 00:53:51;;;;;;;2.58;2.47;;;15.70;95.60;;;;;;5051721;28;20219;-72
2022/09/30 00:56:24;;;;;;;3.72;2.22;;;15.70;94.80;;;;;;5052525;28;20199;-72
2022/09/30 00:58:54;;;;;;;2.00;1.90;;;15.60;94.50;;;;;;5053911;28;20662;-72
2022/09/30 01:01:21;;;;;;;2.45;2.33;;;15.60;95.00;;;;;;5051495;28;20198;-72
2022/09/30 01:03:56;;;;;;;2.58;2.38;;;15.50;94.50;;;;;;5050379;28;20724;-72
2022/09/30 01:06:23;;;;;;;2.67;1.95;;;15.50;93.90;;;;;;5046290;28;20249;-73
2022/09/30 01:08:49;;;;;;;3.00;2.80;;;15.50;94.10;;;;;;5047205;28;20623;-72
2022/09/30 01:11:15;;;;;;;3.38;2.50;;;15.50;95.70;;;;;;5050250;28;20755;-73
2022/09/30 01:13:42;;;;;;;2.78;2.60;;;15.40;95.00;;;;;;5048784;28;20207;-73
2022/09/30 01:16:11;;;;;;;3.30;2.58;;;15.50;96.10;;;;;;5049982;28;20183;-73
2022/09/30 01:19:01;;;;;;;2.55;2.40;;;15.40;95.10;;;;;;5046699;28;20179;-73
2022/09/30 01:22:02;;;;;;;1.88;1.88;;;15.40;96.10;;;;;;5048263;28;20204;-73
2022/09/30 01:24:54;;;;;;;2.60;2.40;;;15.40;96.10;;;;;;5038094;28;20234;-73
2022/09/30 01:27:41;;;;;;;2.10;2.00;;;15.40;94.60;;;;;;4984958;28;21010;-73
2022/09/30 01:30:19;;;;;;;2.15;2.05;;;15.40;94.90;;;;;;4967474;28;20762;-73
2022/09/30 01:32:48;;;;;;;2.13;2.03;;;15.40;94.40;;;;;;4986300;28;20229;-73
2022/09/30 01:35:38;;;;;;;2.33;2.13;;;15.40;95.10;;;;;;4983310;28;20230;-72
2022/09/30 01:38:42;;;;;;;2.08;1.98;;;15.40;93.90;;;;;;4988431;28;20201;-72
2022/09/30 01:41:35;;;;;;;2.65;2.40;;;15.40;94.10;;;;;;4946434;28;20284;-73
2022/09/30 01:44:12;;;;;;;2.72;2.22;;;15.40;95.50;;;;;;4948132;28;20183;-73
2022/09/30 01:46:45;;;;;;;2.40;2.30;;;15.40;96.00;;;;;;4950302;28;20772;-73
2022/09/30 01:49:39;;;;;;;2.10;2.00;;;15.40;95.30;;;;;;4947314;28;20211;-73
2022/09/30 01:52:15;;;;;;;3.65;2.40;;;15.40;94.40;;;;;;4950201;28;20317;-73
2022/09/30 01:55:02;;;;;;;2.92;2.72;;;15.40;94.50;;;;;;4931364;28;20704;-73
2022/09/30 01:57:28;;;;;;;3.53;2.70;;;15.40;95.70;;;;;;4952577;28;20213;-73
2022/09/30 02:00:03;;;;;;;2.60;2.40;;;15.40;95.70;;;;;;4950594;28;20191;-72
2022/09/30 02:02:32;;;;;;;2.72;2.55;;;15.40;95.50;;;;;;4936844;28;20184;-72
2022/09/30 02:05:02;;;;;;;4.22;3.88;;;15.50;96.00;;;;;;4979973;28;20201;-73
2022/09/30 02:08:03;;;;;;;3.70;3.38;;;15.50;95.70;;;;;;4997478;28;20205;-73
2022/09/30 02:10:32;;;;;;;2.53;2.42;;;15.40;94.90;;;;;;4964300;28;20199;-72
2022/09/30 02:13:04;;;;;;;2.38;2.28;;;15.50;95.80;;;;;;4963724;28;20731;-72
2022/09/30 02:15:39;;;;;;;2.65;2.55;;;15.40;94.80;;;;;;4965093;28;20239;-72
2022/09/30 02:18:12;;;;;;;2.78;2.58;;;15.40;94.90;;;;;;4992694;28;20195;-72
2022/09/30 02:20:41;;;;;;;3.30;3.08;;;15.40;94.80;;;;;;5043398;28;20199;-72
2022/09/30 02:23:10;;;;;;;3.55;3.25;;;15.40;94.90;;;;;;5042794;28;20192;-73
2022/09/30 02:25:43;;;;;;;3.28;3.08;;;15.40;95.60;;;;;;5041414;28;20352;-73
2022/09/30 02:28:15;;;;;;;3.28;3.08;;;15.50;96.40;;;;;;5041497;28;20199;-73
2022/09/30 02:30:46;;;;;;;4.25;3.17;;;15.50;95.40;;;;;;5043223;28;20188;-72
2022/09/30 02:33:18;;;;;;;3.67;3.30;;;15.50;96.80;;;;;;5043235;28;20298;-73
2022/09/30 02:35:51;;;;;;;3.40;3.15;;;15.40;96.20;;;;;;5042210;28;20604;-73
2022/09/30 02:38:20;;;;;;;4.30;2.88;;;15.40;96.60;;;;;;5042183;28;20306;-73
2022/09/30 02:40:54;;;;;;;3.47;3.17;;;15.40;96.60;;;;;;5044938;28;20648;-73
2022/09/30 02:43:20;;;;;;;4.65;3.28;;;15.40;95.70;;;;;;5040788;28;20183;-73
2022/09/30 02:45:49;;;;;;;5.57;3.40;;;15.40;96.70;;;;;;5023974;28;20210;-72
2022/09/30 02:48:30;;;;;;;4.20;3.80;;;15.40;96.20;;;;;;5050204;28;20202;-73
2022/09/30 02:51:10;;;;;;;3.17;2.97;;;15.40;95.60;;;;;;5054971;28;20176;-73
2022/09/30 02:54:13;;;;;;;3.38;3.17;;;15.30;95.00;;;;;;5048264;28;20298;-72
2022/09/30 02:57:00;;;;;;;5.80;3.60;;;15.40;96.30;;;;;;5013668;28;20200;-72
2022/09/30 02:59:26;;;;;;;3.85;3.53;;;15.30;95.30;;;;;;5019273;28;20199;-73
2022/09/30 03:01:53;;;;;;;3.33;3.03;;;15.30;95.60;;;;;;5011310;28;20188;-73
2022/09/30 03:04:23;;;;;;;3.88;3.58;;;15.30;95.40;;;;;;5008094;28;20295;-73
2022/09/30 03:06:49;;;;;;;3.22;3.03;;;15.30;95.10;;;;;;5014443;28;20593;-73
2022/09/30 03:09:15;;;;;;;3.83;3.53;;;15.30;95.40;;;;;;5016207;28;20192;-73
2022/09/30 03:11:41;;;;;;;3.80;3.60;;;15.40;95.70;;;;;;5010116;28;20223;-72
2022/09/30 03:14:30;;;;;;;7.63;3.92;;;15.40;96.60;;;;;;5015489;28;20173;-74
2022/09/30 03:17:23;;;;;;;4.38;3.85;;;15.40;94.80;;;;;;5015771;28;21047;-74
2022/09/30 03:20:13;;;;;;;3.72;3.53;;;15.50;97.30;;;;;;5015940;28;20197;-72
2022/09/30 03:23:09;;;;;;;5.32;4.15;;;15.40;96.10;;;;;;5012576;28;20278;-73
2022/09/30 03:26:01;;;;;;;3.60;3.30;;;15.40;95.30;;;;;;4998859;28;20203;-73
2022/09/30 03:28:37;;;;;;;5.80;3.05;;;15.40;95.50;;;;;;5009850;28;20258;-74
2022/09/30 03:31:05;;;;;;;4.57;4.18;;;15.40;96.20;;;;;;5014139;28;20199;-74
2022/09/30 03:33:47;;;;;;;5.30;4.55;;;15.50;95.50;;;;;;5053712;28;20218;-74
2022/09/30 03:36:38;;;;;;;3.63;3.30;;;15.50;94.80;;;;;;5045029;28;20222;-73
2022/09/30 03:39:07;;;;;;;4.22;3.92;;;15.50;95.00;;;;;;5054253;28;20186;-74
2022/09/30 03:41:45;;;;;;;5.15;3.92;;;15.50;95.50;;;;;;5054258;28;20183;-74
2022/09/30 03:44:22;;;;;;;5.22;4.25;;;15.60;96.40;;;;;;5048247;28;20183;-72
2022/09/30 03:46:58;;;;;;;5.30;4.15;;;15.60;94.80;;;;;;5051127;28;20190;-74
2022/09/30 03:49:33;;;;;;;7.10;4.85;;;15.60;96.40;;;;;;5049255;28;20195;-74
2022/09/30 03:52:03;;;;;;;5.15;4.20;;;15.60;95.60;;;;;;5051070;28;20688;-74
2022/09/30 03:54:31;;;;;;;4.80;4.32;;;15.60;96.30;;;;;;5051218;28;20186;-72
2022/09/30 03:57:03;;;;;;;7.25;4.75;;;15.60;95.70;;;;;;5047426;28;20186;-74
2022/09/30 03:59:29;;;;;;;6.43;4.63;;;15.70;96.70;;;;;;5046143;28;20214;-73
2022/09/30 04:01:56;;;;;;;5.93;4.43;;;15.70;95.80;;;;;;5047082;28;20274;-73
2022/09/30 04:04:22;;;;;;;5.60;4.53;;;15.70;96.60;;;;;;5044931;28;20179;-73
2022/09/30 04:06:48;;;;;;;4.90;4.43;;;15.70;96.00;;;;;;5047293;28;20186;-73
2022/09/30 04:09:14;;;;;;;5.00;4.40;;;15.60;95.80;;;;;;5041564;28;20176;-74
2022/09/30 04:11:40;;;;;;;5.53;4.57;;;15.60;96.20;;;;;;5047621;28;20955;-75
2022/09/30 04:14:06;;;;;;;6.45;4.63;;;15.60;95.70;;;;;;5048719;28;20281;-76
2022/09/30 04:16:33;;;;;;;5.82;5.00;;;15.60;95.30;;;;;;5049131;28;20210;-77
2022/09/30 04:18:59;;;;;;;5.32;4.65;;;15.60;95.10;;;;;;5043132;28;20202;-77
2022/09/30 04:21:27;;;;;;;5.53;4.50;;;15.60;95.70;;;;;;5051253;28;20183;-77
2022/09/30 04:23:54;;;;;;;5.88;5.28;;;15.60;95.30;;;;;;5051056;28;20186;-77
2022/09/30 04:26:19;;;;;;;5.00;4.47;;;15.70;97.10;;;;;;5049233;28;20202;-77
2022/09/30 04:28:45;;;;;;;5.45;4.55;;;15.70;96.20;;;;;;5047963;28;20183;-75
2022/09/30 04:31:13;;;;;;;4.47;4.07;;;15.70;96.50;;;;;;5044792;28;20187;-75
2022/09/30 04:33:39;;;;;;;6.95;4.50;;;15.70;95.80;;;;;;5040283;28;20685;-75
2022/09/30 04:36:05;;;;;;;4.68;4.28;;;15.70;97.00;;;;;;5046970;28;20188;-75
2022/09/30 04:38:32;;;;;;;5.85;4.90;;;15.70;95.80;;;;;;5053284;28;20576;-75
2022/09/30 04:41:04;;;;;;;9.85;6.00;;;15.70;96.20;;;;;;5052174;28;20189;-75
2022/09/30 04:43:30;;;;;;;11.10;6.07;;;15.70;96.30;;;;;;5049351;28;20270;-76
2022/09/30 04:45:56;;;;;;;8.20;5.80;;;15.60;96.10;;;;;;5047206;28;21045;-76
2022/09/30 04:48:23;;;;;;;8.57;6.00;;;15.60;96.60;;;;;;5044842;28;20808;-76
2022/09/30 04:50:49;;;;;;;11.82;7.22;;;15.60;95.50;;;;;;5049997;28;20550;-76
2022/09/30 04:53:16;;;;;;;9.85;6.63;;;15.60;96.10;;;;;;5045039;28;20208;-76
2022/09/30 04:55:43;;;;;;;7.30;5.28;;;15.60;95.80;;;;;;5049543;28;20555;-76
2022/09/30 04:58:09;;;;;;;10.13;6.50;;;15.60;95.50;;;;;;5045020;28;20237;-76
2022/09/30 05:00:35;;;;;;;13.07;7.00;;;15.60;95.50;;;;;;5051288;28;20179;-76
2022/09/30 05:03:02;;;;;;;10.32;6.22;;;15.60;95.00;;;;;;5047488;28;20555;-76
2022/09/30 05:05:28;;;;;;;6.15;5.53;;;15.70;97.20;;;;;;5043520;28;20248;-76
2022/09/30 05:08:02;;;;;;;9.25;6.70;;;15.70;96.40;;;;;;5048615;28;20237;-75
2022/09/30 05:10:28;;;;;;;7.57;5.63;;;15.70;96.70;;;;;;5045625;28;20179;-75
2022/09/30 05:12:55;;;;;;;8.32;6.25;;;15.70;96.60;;;;;;5051212;28;20725;-75
2022/09/30 05:15:20;;;;;;;9.40;6.28;;;15.70;95.70;;;;;;5048395;28;20300;-75
2022/09/30 05:17:48;;;;;;;6.32;5.28;;;15.70;97.10;;;;;;5043785;28;21050;-77
2022/09/30 05:20:14;;;;;;;6.72;5.18;;;15.70;97.00;;;;;;5043767;28;20192;-77
2022/09/30 05:22:39;;;;;;;6.03;5.03;;;15.70;96.30;;;;;;5051599;28;20198;-76
2022/09/30 05:25:06;;;;;;;5.50;4.70;;;15.70;96.80;;;;;;5077868;28;20198;-77
2022/09/30 05:27:33;;;;;;;5.70;4.63;;;15.70;96.60;;;;;;5048690;28;20179;-76
2022/09/30 05:29:59;;;;;;;5.30;4.65;;;15.70;96.90;;;;;;5042434;28;20249;-76
2022/09/30 05:32:25;;;;;;;5.68;4.63;;;15.70;96.90;;;;;;5050746;28;20833;-76
2022/09/30 05:34:51;;;;;;;5.45;4.32;;;15.60;96.80;;;;;;5051056;28;20241;-76
2022/09/30 05:37:17;;;;;;;5.28;4.68;;;15.60;96.20;;;;;;5057485;28;20184;-77
2022/09/30 05:39:43;;;;;;;5.40;4.88;;;15.60;97.60;;;;;;5057822;28;20183;-77
2022/09/30 05:42:08;;;;;;;9.45;6.13;;;15.60;96.70;;;;;;5049125;28;20190;-76
2022/09/30 05:44:34;;;;;;;9.18;6.15;;;15.60;97.60;;;;;;5056826;28;20195;-76
2022/09/30 05:47:00;;;;;;;10.88;6.32;;;15.60;96.80;;;;;;5048272;28;20258;-76
2022/09/30 05:49:26;;;;;;;9.15;5.35;;;15.50;97.20;;;;;;5054197;28;20565;-76
2022/09/30 05:51:52;;;;;;;8.73;6.10;;;15.60;97.70;;;;;;5057410;28;20206;-76
2022/09/30 05:54:19;;;;;;;7.95;6.43;;;15.60;97.10;;;;;;5051446;28;20190;-75
2022/09/30 05:56:44;;;;;;;10.18;6.43;;;15.60;96.70;;;;;;5053821;28;20187;-76
2022/09/30 05:59:10;;;;;;;10.95;7.07;;;15.70;97.20;;;;;;5056426;28;20192;-77
2022/09/30 06:01:36;;;;;;;11.63;6.25;;;15.70;97.30;;;;;;5064103;28;20656;-75
2022/09/30 06:04:02;;;;;;;11.05;6.82;;;15.80;97.30;;;;;;5056207;28;20239;-76
2022/09/30 06:06:29;;;;;;;11.25;6.70;;;15.90;97.30;;;;;;5056817;28;20190;-76
2022/09/30 06:08:55;;;;;;;8.30;5.45;;;16.00;97.00;;;;;;5046985;28;20879;-74
2022/09/30 06:11:24;;;;;;;6.82;4.90;;;16.00;97.90;;;;;;5056551;28;20187;-76
2022/09/30 06:13:51;;;;;;;6.75;5.57;;;16.10;97.70;;;;;;5046917;28;20203;-77
2022/09/30 06:16:18;;;;;;;9.13;5.63;;;16.20;97.40;;;;;;5049109;28;20277;-76
2022/09/30 06:18:44;;;;;;;6.88;5.32;;;16.20;96.90;;;;;;5051129;28;20190;-76
2022/09/30 06:21:14;;;;;;;7.60;6.60;;;16.30;97.30;;;;;;5051117;28;20924;-75
2022/09/30 06:23:40;;;;;;;11.38;6.45;;;16.30;96.50;;;;;;5048281;28;20278;-75
2022/09/30 06:26:10;;;;;;;8.90;5.95;;;16.40;97.40;;;;;;5046581;28;20180;-76
2022/09/30 06:28:36;;;;;;;7.95;5.72;;;16.40;96.70;;;;;;5052962;28;20261;-76
2022/09/30 06:31:03;;;;;;;10.20;6.22;;;16.50;97.20;;;;;;5052746;28;20908;-75
2022/09/30 06:33:31;;;;;;;10.25;6.85;;;16.50;97.30;;;;;;5048143;28;20681;-75
2022/09/30 06:35:57;;;;;;;9.80;7.13;;;16.50;96.70;;;;;;5053724;28;20182;-75
2022/09/30 06:38:23;;;;;;;7.88;7.00;;;16.50;96.90;;;;;;5046718;28;20385;-75
2022/09/30 06:40:49;;;;;;;9.07;6.90;;;16.50;96.90;;;;;;5049190;28;20190;-75
2022/09/30 06:43:19;;;;;;;9.98;6.72;;;16.60;96.70;;;;;;5048420;28;20996;-75
2022/09/30 06:45:47;;;;;;;9.25;6.90;;;16.60;96.00;;;;;;5049754;28;20187;-75
2022/09/30 06:48:15;;;;;;;10.25;6.95;;;16.70;96.80;;;;;;5049523;28;20838;-76
2022/09/30 06:50:41;;;;;;;8.85;7.03;;;16.80;96.70;;;;;;5047818;28;20310;-76
2022/09/30 06:53:10;;;;;;;10.50;7.60;;;16.90;96.50;;;;;;5049968;28;20211;-76
2022/09/30 06:55:37;;;;;;;14.98;8.65;;;17.00;96.20;;;;;;5051511;28;20205;-75
2022/09/30 06:58:06;;;;;;;15.95;9.63;;;17.10;96.70;;;;;;5050233;28;20185;-76
2022/09/30 07:00:32;;;;;;;12.75;8.35;;;17.10;95.90;;;;;;5049258;28;20240;-76
2022/09/30 07:02:58;;;;;;;12.80;8.10;;;17.20;96.00;;;;;;5048637;28;20195;-75
2022/09/30 07:05:25;;;;;;;19.08;9.57;;;17.30;96.10;;;;;;5048689;28;20214;-76
2022/09/30 07:07:52;;;;;;;21.23;9.65;;;17.40;95.70;;;;;;5049217;28;20171;-76
2022/09/30 07:10:19;;;;;;;13.77;7.97;;;17.50;95.40;;;;;;5051844;28;20836;-76
2022/09/30 07:12:49;;;;;;;16.20;9.60;;;17.60;95.60;;;;;;5054807;28;20962;-76
2022/09/30 07:15:15;;;;;;;12.57;8.75;;;17.70;95.00;;;;;;5043751;28;20241;-75
2022/09/30 07:17:41;;;;;;;12.10;8.90;;;17.80;95.30;;;;;;5049761;28;20175;-75
2022/09/30 07:20:07;;;;;;;16.40;9.43;;;18.00;95.60;;;;;;5053216;28;20819;-76
2022/09/30 07:22:33;;;;;;;17.63;9.43;;;18.10;95.40;;;;;;5056816;28;20194;-75
2022/09/30 07:25:03;;;;;;;11.23;8.23;;;18.30;96.30;;;;;;5048650;28;20269;-75
2022/09/30 07:27:31;;;;;;;12.13;8.63;;;18.50;94.90;;;;;;5046753;28;20266;-76
2022/09/30 07:29:58;;;;;;;13.82;9.27;;;18.70;94.70;;;;;;5050398;28;20683;-75
2022/09/30 07:32:24;;;;;;;13.02;9.00;;;18.90;94.50;;;;;;5050315;28;20211;-75
2022/09/30 07:34:50;;;;;;;15.73;10.18;;;19.00;93.70;;;;;;5047834;28;20831;-76
2022/09/30 07:37:17;;;;;;;16.90;10.95;;;19.10;93.60;;;;;;5047837;28;20188;-76
2022/09/30 07:39:46;;;;;;;17.00;10.77;;;19.30;93.90;;;;;;5055178;28;20175;-76
2022/09/30 07:42:19;;;;;;;20.65;11.30;;;19.40;92.90;;;;;;5047940;28;20285;-75
2022/09/30 07:44:44;;;;;;;16.88;10.48;;;19.60;92.30;;;;;;5052830;28;20215;-76
2022/09/30 07:47:11;;;;;;;19.73;11.65;;;19.60;91.00;;;;;;5051762;28;20778;-76
2022/09/30 07:49:37;;;;;;;17.65;10.23;;;19.70;89.90;;;;;;5054239;28;20185;-75
2022/09/30 07:52:03;;;;;;;13.10;8.98;;;19.80;90.30;;;;;;5045611;28;20275;-75
2022/09/30 07:54:31;;;;;;;13.95;9.25;;;20.00;89.90;;;;;;5042431;28;20183;-75
2022/09/30 07:57:01;;;;;;;14.00;9.07;;;20.50;90.60;;;;;;5047969;28;20226;-75
2022/09/30 07:59:28;;;;;;;12.98;9.05;;;21.10;91.00;;;;;;5051324;28;20179;-76
2022/09/30 08:01:54;;;;;;;11.95;8.10;;;21.80;89.80;;;;;;5048643;28;20183;-76
2022/09/30 08:04:21;;;;;;;15.18;8.05;;;22.60;89.40;;;;;;5048444;28;20190;-76
2022/09/30 08:06:53;;;;;;;12.05;8.70;;;23.40;85.70;;;;;;5055869;28;20262;-76
2022/09/30 08:09:20;;;;;;;11.85;7.35;;;24.20;83.10;;;;;;5047568;28;20234;-76
2022/09/30 08:11:46;;;;;;;7.82;7.07;;;24.90;79.90;;;;;;5050801;28;20213;-76
2022/09/30 08:14:14;;;;;;;10.32;7.10;;;25.40;78.90;;;;;;5052015;28;20187;-76
2022/09/30 08:16:40;;;;;;;11.73;6.78;;;26.00;77.50;;;;;;5047160;28;20575;-76
2022/09/30 08:19:06;;;;;;;9.73;6.55;;;26.50;76.10;;;;;;5042083;28;20180;-76
2022/09/30 08:21:32;;;;;;;7.78;6.75;;;27.00;76.50;;;;;;5048060;28;20265;-76
2022/09/30 08:23:57;;;;;;;8.30;7.18;;;27.50;74.10;;;;;;5048123;28;20182;-76
2022/09/30 08:26:23;;;;;;;10.73;7.53;;;27.90;72.00;;;;;;5046093;28;20696;-76
2022/09/30 08:28:49;;;;;;;9.52;6.85;;;28.30;72.50;;;;;;5042562;28;20199;-76
2022/09/30 08:31:18;;;;;;;11.63;7.72;;;28.80;72.60;;;;;;5040762;28;20180;-76
2022/09/30 08:33:44;;;;;;;8.18;6.85;;;29.40;71.10;;;;;;5050514;28;20297;-76
2022/09/30 08:36:14;;;;;;;14.68;7.85;;;29.70;70.40;;;;;;5050466;28;20202;-77
2022/09/30 08:38:40;;;;;;;7.53;6.82;;;29.90;70.00;;;;;;5048763;28;20244;-76
2022/09/30 08:41:34;;;;;;;6.75;6.10;;;30.30;68.20;;;;;;5050229;28;20179;-77
2022/09/30 08:44:05;;;;;;;8.55;6.10;;;30.60;68.10;;;;;;5048791;28;20179;-76
2022/09/30 08:46:40;;;;;;;6.15;5.55;;;31.20;68.40;;;;;;5048212;28;20195;-76
2022/09/30 08:49:21;;;;;;;6.32;5.72;;;31.90;66.00;;;;;;5042572;28;20214;-77
2022/09/30 08:51:48;;;;;;;9.20;6.47;;;32.60;64.50;;;;;;5052210;28;21123;-77
2022/09/30 08:54:19;;;;;;;8.30;7.22;;;33.40;63.70;;;;;;5051401;28;20171;-77
2022/09/30 08:56:46;;;;;;;8.25;6.72;;;34.00;61.30;;;;;;5048636;28;20180;-75
2022/09/30 08:59:43;;;;;;;11.05;7.30;;;34.70;62.00;;;;;;5050925;28;20707;-78
2022/09/30 09:02:18;;;;;;;8.65;7.70;;;35.30;59.00;;;;;;5046801;28;22023;-77
2022/09/30 09:04:45;;;;;;;7.60;6.97;;;36.00;59.40;;;;;;5048376;28;20233;-75
2022/09/30 09:07:29;;;;;;;8.88;6.38;;;36.50;56.00;;;;;;5048915;28;20182;-76
2022/09/30 09:10:28;;;;;;;7.57;5.55;;;36.90;59.30;;;;;;5048538;28;20205;-76
2022/09/30 09:13:05;;;;;;;5.68;5.05;;;37.40;56.70;;;;;;5044624;28;20210;-76
2022/09/30 09:15:37;;;;;;;5.43;4.90;;;38.00;56.70;;;;;;5044559;28;20209;-76
2022/09/30 09:18:33;;;;;;;5.07;4.53;;;38.40;58.10;;;;;;5041224;28;20175;-76
2022/09/30 09:21:12;;;;;;;4.80;4.60;;;38.80;54.70;;;;;;5048313;28;20198;-76
2022/09/30 09:23:38;;;;;;;8.00;5.57;;;39.10;55.50;;;;;;5049307;28;21176;-76
2022/09/30 09:26:04;;;;;;;5.03;4.47;;;39.40;55.90;;;;;;5046308;28;20187;-76
2022/09/30 09:28:59;;;;;;;10.15;3.95;;;39.60;56.80;;;;;;5047187;28;20231;-76
2022/09/30 09:31:25;;;;;;;3.05;2.83;;;39.80;55.80;;;;;;5046193;28;20182;-76
2022/09/30 09:33:51;;;;;;;3.53;3.05;;;40.10;56.30;;;;;;5043758;28;20304;-76
2022/09/30 09:36:20;;;;;;;4.28;3.35;;;40.30;52.10;;;;;;5043354;28;20196;-76
2022/09/30 09:39:10;;;;;;;3.05;2.85;;;40.40;56.10;;;;;;5047493;28;20279;-78
2022/09/30 09:42:00;;;;;;;3.65;3.30;;;40.50;53.80;;;;;;5047285;28;20179;-77
2022/09/30 09:44:39;;;;;;;4.03;3.63;;;40.90;52.50;;;;;;5043361;28;20308;-77
2022/09/30 09:47:14;;;;;;;3.60;3.40;;;41.20;54.80;;;;;;5049510;28;20194;-77
2022/09/30 09:49:43;;;;;;;6.75;3.00;;;41.30;54.90;;;;;;5044986;28;20309;-77
2022/09/30 09:52:12;;;;;;;11.23;4.13;;;41.50;54.70;;;;;;5047527;28;20256;-77
2022/09/30 09:54:46;;;;;;;3.85;3.65;;;41.80;51.80;;;;;;5051883;28;20184;-77
2022/09/30 09:57:15;;;;;;;3.67;3.42;;;41.90;53.20;;;;;;5047144;28;20190;-77
2022/09/30 10:03:17;;;;;;;3.10;3.00;;;42.00;48.20;;;;;;5037902;28;20213;-77
2022/09/30 10:05:45;;;;;;;12.52;4.13;;;41.90;47.50;;;;;;5037944;28;20178;-77
2022/09/30 10:08:15;;;;;;;3.53;3.22;;;41.80;52.90;;;;;;5037143;28;20228;-76
2022/09/30 10:10:43;;;;;;;3.28;3.08;;;41.90;46.80;;;;;;5038380;28;20187;-76
2022/09/30 10:13:18;;;;;;;2.80;2.60;;;42.00;51.80;;;;;;5035682;28;20257;-76
2022/09/30 10:15:44;;;;;;;3.05;2.80;;;42.10;51.70;;;;;;5038225;28;20273;-77
2022/09/30 10:18:19;;;;;;;2.78;2.47;;;42.30;51.20;;;;;;5024938;28;20237;-76
2022/09/30 10:20:56;;;;;;;2.33;2.22;;;42.50;51.20;;;;;;5041711;28;20244;-76
2022/09/30 10:23:27;;;;;;;3.50;1.95;;;42.70;51.10;;;;;;5039925;28;20182;-76
2022/09/30 10:25:57;;;;;;;2.00;1.90;;;43.00;50.40;;;;;;5039153;28;20205;-76
2022/09/30 10:28:27;;;;;;;3.67;1.88;;;43.10;50.70;;;;;;5045853;28;20179;-77
2022/09/30 10:31:26;;;;;;;2.13;2.13;;;43.30;50.60;;;;;;5026650;28;20905;-75
2022/09/30 10:34:19;;;;;;;3.70;1.58;;;43.40;44.10;;;;;;4991403;28;20891;-75
2022/09/30 10:36:46;;;;;;;1.75;1.65;;;43.60;44.50;;;;;;4993047;28;20259;-77
2022/09/30 10:39:17;;;;;;;1.63;1.52;;;43.60;49.50;;;;;;4989236;28;20251;-76
2022/09/30 10:41:43;;;;;;;1.70;1.70;;;43.50;47.50;;;;;;4990647;28;20204;-76
2022/09/30 10:44:21;;;;;;;2.45;1.40;;;43.50;47.60;;;;;;4988159;28;20197;-75
2022/09/30 10:46:50;;;;;;;3.10;1.80;;;43.60;43.50;;;;;;4995693;28;20192;-75
2022/09/30 10:49:27;;;;;;;1.00;1.00;;;43.70;47.70;;;;;;4996671;28;20240;-76
2022/09/30 10:51:55;;;;;;;1.25;1.25;;;43.70;41.40;;;;;;4989232;28;20227;-75
2022/09/30 10:54:50;;;;;;;0.88;0.88;;;43.40;46.30;;;;;;4986811;28;20223;-76
2022/09/30 10:57:19;;;;;;;1.38;1.27;;;42.80;39.90;;;;;;4969810;28;20299;-76
2022/09/30 10:59:46;;;;;;;1.02;1.02;;;41.80;41.40;;;;;;4965527;28;20193;-76
2022/09/30 11:02:30;;;;;;;1.05;1.05;;;41.60;43.90;;;;;;4963790;28;20197;-77
2022/09/30 11:04:58;;;;;;;1.02;1.02;;;41.60;45.80;;;;;;4967407;28;20328;-76
2022/09/30 11:07:29;;;;;;;1.00;1.00;;;41.50;46.30;;;;;;4973397;28;20197;-76
2022/09/30 11:09:59;;;;;;;1.02;1.02;;;41.60;47.60;;;;;;4972882;28;20280;-76
2022/09/30 11:12:40;;;;;;;1.10;1.00;;;41.80;46.70;;;;;;4984666;28;20220;-76
2022/09/30 11:15:17;;;;;;;0.95;0.95;;;42.00;46.10;;;;;;4978006;28;20242;-74
2022/09/30 11:17:59;;;;;;;2.40;0.90;;;41.80;43.70;;;;;;4975271;28;20193;-75
2022/09/30 11:20:29;;;;;;;1.08;1.08;;;41.40;44.60;;;;;;4984393;28;20200;-74
2022/09/30 11:23:19;;;;;;;1.13;1.00;;;41.10;43.90;;;;;;4984793;28;20231;-74
2022/09/30 11:25:47;;;;;;;0.70;0.70;;;40.80;41.80;;;;;;4981991;28;20991;-75
2022/09/30 11:28:40;;;;;;;0.80;0.80;;;40.30;43.60;;;;;;4976773;28;20200;-75
2022/09/30 11:31:16;;;;;;;0.85;0.85;;;39.50;41.90;;;;;;4974463;28;20247;-74
2022/09/30 11:33:51;;;;;;;0.75;0.75;;;39.20;43.80;;;;;;5012717;28;20300;-74
2022/09/30 11:36:42;;;;;;;1.08;0.90;;;39.30;42.80;;;;;;5044056;28;20199;-74
2022/09/30 11:39:39;;;;;;;0.93;0.93;;;39.60;43.60;;;;;;5051143;28;20268;-75
2022/09/30 11:42:31;;;;;;;0.77;0.70;;;39.70;40.90;;;;;;5043642;28;21138;-75
2022/09/30 11:45:11;;;;;;;0.95;0.85;;;39.30;44.00;;;;;;5053292;28;20194;-75
2022/09/30 11:47:57;;;;;;;1.20;0.82;;;39.00;44.00;;;;;;5046929;28;20284;-73
2022/09/30 11:50:33;;;;;;;0.95;0.95;;;39.20;44.10;;;;;;5049210;28;20218;-75
2022/09/30 11:53:14;;;;;;;0.80;0.77;;;39.20;41.30;;;;;;5043069;28;20297;-75
2022/09/30 11:55:49;;;;;;;0.70;0.70;;;39.10;42.10;;;;;;5045509;28;20270;-75
2022/09/30 11:58:22;;;;;;;0.73;0.50;;;39.00;41.20;;;;;;5049733;28;20588;-74
2022/09/30 12:01:04;;;;;;;0.63;0.63;;;38.60;42.20;;;;;;5050301;28;20187;-75
2022/09/30 12:03:38;;;;;;;0.75;0.75;;;38.00;42.80;;;;;;5047667;28;20295;-74
2022/09/30 12:06:30;;;;;;;0.70;0.70;;;36.70;43.90;;;;;;5045170;28;20660;-74
2022/09/30 12:09:26;;;;;;;0.55;0.55;;;36.10;45.30;;;;;;5048137;28;20273;-74
2022/09/30 12:12:05;;;;;;;0.57;0.57;;;35.30;44.50;;;;;;5023722;28;20270;-74
2022/09/30 12:15:01;;;;;;;0.63;0.63;;;34.40;45.70;;;;;;5024172;28;20194;-76
2022/09/30 12:17:48;;;;;;;1.20;0.95;;;33.70;46.40;;;;;;5000892;28;21045;-74
2022/09/30 12:20:28;;;;;;;5.88;0.73;;;33.20;47.40;;;;;;4999055;28;20974;-75
2022/09/30 12:23:25;;;;;;;0.88;0.88;;;32.90;51.10;;;;;;5001394;28;20192;-75
2022/09/30 12:26:01;;;;;;;0.70;0.70;;;32.60;48.40;;;;;;4943715;28;20190;-76
2022/09/30 12:31:46;;;;;;;0.65;0.52;;;32.90;48.10;;;;;;4951945;28;20197;-76
2022/09/30 12:34:30;;;;;;;0.77;0.60;;;33.10;47.80;;;;;;4941419;28;20206;-75
2022/09/30 12:37:26;;;;;;;0.50;0.50;;;33.10;47.60;;;;;;4941789;28;20222;-75
2022/09/30 12:40:10;;;;;;;0.50;0.50;;;32.80;47.20;;;;;;4947080;28;20210;-74
2022/09/30 12:43:05;;;;;;;0.50;0.50;;;32.50;47.50;;;;;;4948559;28;20197;-75
2022/09/30 12:45:58;;;;;;;0.65;0.65;;;32.20;48.00;;;;;;4922215;29;20751;-75
2022/09/30 12:48:52;;;;;;;0.50;0.50;;;32.50;48.30;;;;;;4929537;28;20254;-74
2022/09/30 12:51:30;;;;;;;1.25;0.63;;;32.80;48.30;;;;;;4927332;28;20289;-75
2022/09/30 12:54:06;;;;;;;0.65;0.63;;;32.90;47.50;;;;;;4936480;28;20786;-74
2022/09/30 12:56:34;;;;;;;0.68;0.68;;;32.90;47.30;;;;;;4921086;29;20202;-75
2022/09/30 12:59:00;;;;;;;0.70;0.70;;;32.70;48.50;;;;;;4921782;29;20198;-75
2022/09/30 13:01:33;;;;;;;0.75;0.70;;;32.70;48.10;;;;;;4924510;28;21013;-75
2022/09/30 13:03:59;;;;;;;0.50;0.50;;;32.80;49.00;;;;;;4950170;28;20212;-75
2022/09/30 13:06:27;;;;;;;1.35;0.60;;;32.80;47.90;;;;;;4957304;28;20189;-75
2022/09/30 13:08:56;;;;;;;0.57;0.57;;;33.00;48.10;;;;;;4958535;28;20729;-75
2022/09/30 13:11:41;;;;;;;2.50;0.60;;;33.10;46.80;;;;;;4955998;28;20277;-75
2022/09/30 13:14:32;;;;;;;0.88;0.80;;;33.20;46.00;;;;;;4957781;28;20205;-76
2022/09/30 13:17:03;;;;;;;0.50;0.50;;;33.40;46.90;;;;;;4956590;28;20268;-76
2022/09/30 13:19:43;;;;;;;0.57;0.57;;;33.50;47.20;;;;;;4972669;28;20221;-76
2022/09/30 13:22:23;;;;;;;1.83;0.70;;;33.50;47.00;;;;;;4974041;28;20190;-75